Main page
METAR-TAF:

METAR-TAF

Airports :

RoAF 71st Air Base

Câmpia Turzii, Romania

latitude: 46-30-12N, longitude: 023-53-07E, elevation: 324 m

Current weather observation

The report was made 1 hour and 33 minutes ago, at 13:00 UTC
Wind 3 kt from the West/Southwest
Temperature 8°C
Humidity 53%
Pressure 1029 hPa
Visibility 10 km or more
Few clouds at a height of 5700 ft

METAR: LRCT 221300Z 25003KT 9999 FEW057 08/M01 Q1029 BLU BLU

Time: 16:33 (14:33 UTC)

Forecast

The report was made 3 hours and 33 minutes ago, at 11:00 UTC
Forecast valid from 22 at 12 UTC to 23 at 12 UTC
Wind 4 kt from the West/Southwest
Visibility 10 km or more
Clear sky
Temporary
from 22 at 12 UTC to 22 at 15 UTC
Wind 5 kt from the South/Southwest
Scattered clouds at a height of 2500 ft
Becoming
from 22 at 19 UTC to 22 at 21 UTC
Wind 5 kt from the South
Few clouds at a height of 6000 ft
Broken clouds at a height of 18000 ft

TAF: LRCT 221100Z 2212/2312 25004KT 9999 SKC TEMPO 2212/2215 20005KT SCT025 BECMG 2219/2221 18005KT FEW060 BKN180

Weather observations and forecasts of more than 4000 airports (METAR and TAF reports).

The available stations are represented by yellow and red dots on the map.

Hover mouse over dot to see the name of the station.

Then click to see weather observations and forecasts.

To change the map : click on the green buttons with a black cross to zoom in, on the green button with a dash to zoom out, or on the green arrows for adjacent maps.


METAR-TAF: